sensor_id;sensor_type;location;lat;lon;timestamp;pressure;altitude;pressure_sealevel;temperature;humidity
41632;BME280;37452;51.938;4.624;2023-04-09T00:02:14;78350.19;;;-142.75;100.00
41632;BME280;37452;51.938;4.624;2023-04-09T00:04:40;78358.06;;;-142.75;100.00
41632;BME280;37452;51.938;4.624;2023-04-09T00:07:05;78340.34;;;-142.75;100.00
41632;BME280;37452;51.938;4.624;2023-04-09T00:09:31;78336.41;;;-142.75;100.00
41632;BME280;37452;51.938;4.624;2023-04-09T00:11:56;78340.34;;;-142.75;100.00
41632;BME280;37452;51.938;4.624;2023-04-09T00:14:22;78352.16;;;-142.75;100.00
41632;BME280;37452;51.938;4.624;2023-04-09T00:16:47;78354.13;;;-142.75;100.00
41632;BME280;37452;51.938;4.624;2023-04-09T00:19:13;78346.25;;;-142.75;100.00
41632;BME280;37452;51.938;4.624;2023-04-09T00:21:38;78350.19;;;-142.75;100.00
41632;BME280;37452;51.938;4.624;2023-04-09T00:24:04;78346.25;;;-142.75;100.00
41632;BME280;37452;51.938;4.624;2023-04-09T00:26:30;78348.22;;;-142.75;100.00
41632;BME280;37452;51.938;4.624;2023-04-09T00:28:55;78354.13;;;-142.75;100.00
41632;BME280;37452;51.938;4.624;2023-04-09T00:31:20;78348.22;;;-142.75;100.00
41632;BME280;37452;51.938;4.624;2023-04-09T00:33:46;78352.16;;;-142.75;100.00
41632;BME280;37452;51.938;4.624;2023-04-09T00:36:11;78350.19;;;-142.75;100.00
41632;BME280;37452;51.938;4.624;2023-04-09T00:38:36;78334.44;;;-142.75;100.00
41632;BME280;37452;51.938;4.624;2023-04-09T00:41:02;78328.53;;;-142.75;100.00
41632;BME280;37452;51.938;4.624;2023-04-09T00:43:27;78334.44;;;-142.75;100.00
41632;BME280;37452;51.938;4.624;2023-04-09T00:45:53;78330.50;;;-142.75;100.00
41632;BME280;37452;51.938;4.624;2023-04-09T00:48:19;78334.44;;;-142.75;100.00
41632;BME280;37452;51.938;4.624;2023-04-09T00:50:45;78332.47;;;-142.75;100.00
41632;BME280;37452;51.938;4.624;2023-04-09T00:53:11;78330.50;;;-142.75;100.00
41632;BME280;37452;51.938;4.624;2023-04-09T00:55:39;78342.31;;;-142.75;100.00
41632;BME280;37452;51.938;4.624;2023-04-09T00:58:04;78340.34;;;-142.75;100.00
41632;BME280;37452;51.938;4.624;2023-04-09T01:00:30;78354.13;;;-142.75;100.00
41632;BME280;37452;51.938;4.624;2023-04-09T01:02:56;78401.38;;;-142.75;100.00
41632;BME280;37452;51.938;4.624;2023-04-09T01:05:30;78381.69;;;-142.75;100.00
41632;BME280;37452;51.938;4.624;2023-04-09T01:10:58;78363.97;;;-142.75;100.00
41632;BME280;37452;51.938;4.624;2023-04-09T01:13:33;78342.31;;;-142.75;100.00
41632;BME280;37452;51.938;4.624;2023-04-09T01:16:00;78334.44;;;-142.75;100.00
41632;BME280;37452;51.938;4.624;2023-04-09T01:18:34;78314.75;;;-142.75;100.00
41632;BME280;37452;51.938;4.624;2023-04-09T01:21:08;78308.84;;;-142.75;100.00
41632;BME280;37452;51.938;4.624;2023-04-09T01:24:01;78281.25;;;-142.75;100.00
41632;BME280;37452;51.938;4.624;2023-04-09T01:27:00;78259.59;;;-142.75;100.00
41632;BME280;37452;51.938;4.624;2023-04-09T01:29:30;78251.72;;;-142.75;100.00
41632;BME280;37452;51.938;4.624;2023-04-09T01:31:58;78243.84;;;-142.75;100.00
41632;BME280;37452;51.938;4.624;2023-04-09T01:34:25;78235.97;;;-142.75;100.00
41632;BME280;37452;51.938;4.624;2023-04-09T01:36:55;78224.16;;;-142.75;100.00
41632;BME280;37452;51.938;4.624;2023-04-09T01:39:22;78214.31;;;-142.75;100.00
41632;BME280;37452;51.938;4.624;2023-04-09T01:41:49;78200.53;;;-142.75;100.00
41632;BME280;37452;51.938;4.624;2023-04-09T01:44:15;78196.59;;;-142.75;100.00
41632;BME280;37452;51.938;4.624;2023-04-09T01:46:42;78194.63;;;-142.75;100.00
41632;BME280;37452;51.938;4.624;2023-04-09T01:49:09;78188.72;;;-142.75;100.00
41632;BME280;37452;51.938;4.624;2023-04-09T01:51:35;78186.75;;;-142.75;100.00
41632;BME280;37452;51.938;4.624;2023-04-09T01:54:00;78176.88;;;-142.75;100.00
41632;BME280;37452;51.938;4.624;2023-04-09T01:56:26;78170.97;;;-142.75;100.00
41632;BME280;37452;51.938;4.624;2023-04-09T01:58:51;78172.94;;;-142.75;100.00
41632;BME280;37452;51.938;4.624;2023-04-09T02:01:26;78157.19;;;-142.75;100.00
41632;BME280;37452;51.938;4.624;2023-04-09T02:03:57;78147.34;;;-142.75;100.00
41632;BME280;37452;51.938;4.624;2023-04-09T02:06:30;78153.25;;;-142.75;100.00
41632;BME280;37452;51.938;4.624;2023-04-09T02:08:59;78161.13;;;-142.75;100.00
41632;BME280;37452;51.938;4.624;2023-04-09T02:11:27;78169.00;;;-142.75;100.00
41632;BME280;37452;51.938;4.624;2023-04-09T02:13:54;78167.03;;;-142.75;100.00
41632;BME280;37452;51.938;4.624;2023-04-09T02:16:20;78172.94;;;-142.75;100.00
41632;BME280;37452;51.938;4.624;2023-04-09T02:18:52;78165.06;;;-142.75;100.00
41632;BME280;37452;51.938;4.624;2023-04-09T02:21:17;78174.91;;;-142.75;100.00
41632;BME280;37452;51.938;4.624;2023-04-09T02:23:42;78180.81;;;-142.75;100.00
41632;BME280;37452;51.938;4.624;2023-04-09T02:26:08;78176.88;;;-142.75;100.00
41632;BME280;37452;51.938;4.624;2023-04-09T02:28:33;78188.72;;;-142.75;100.00
41632;BME280;37452;51.938;4.624;2023-04-09T02:30:58;78184.78;;;-142.75;100.00
41632;BME280;37452;51.938;4.624;2023-04-09T02:33:24;78176.88;;;-142.75;100.00
41632;BME280;37452;51.938;4.624;2023-04-09T02:35:49;78169.00;;;-142.75;100.00
41632;BME280;37452;51.938;4.624;2023-04-09T02:38:14;78159.16;;;-142.75;100.00
41632;BME280;37452;51.938;4.624;2023-04-09T02:40:40;78161.13;;;-142.75;100.00
41632;BME280;37452;51.938;4.624;2023-04-09T02:43:05;78161.13;;;-142.75;100.00
41632;BME280;37452;51.938;4.624;2023-04-09T02:45:31;78163.09;;;-142.75;100.00
41632;BME280;37452;51.938;4.624;2023-04-09T02:47:56;78167.03;;;-142.75;100.00
41632;BME280;37452;51.938;4.624;2023-04-09T02:50:21;78157.19;;;-142.75;100.00
41632;BME280;37452;51.938;4.624;2023-04-09T02:52:47;78165.06;;;-142.75;100.00
41632;BME280;37452;51.938;4.624;2023-04-09T02:55:13;78163.09;;;-142.75;100.00
41632;BME280;37452;51.938;4.624;2023-04-09T02:57:38;78170.97;;;-142.75;100.00
41632;BME280;37452;51.938;4.624;2023-04-09T03:00:04;78165.06;;;-142.75;100.00
41632;BME280;37452;51.938;4.624;2023-04-09T03:02:29;78163.09;;;-142.75;100.00
41632;BME280;37452;51.938;4.624;2023-04-09T03:04:54;78165.06;;;-142.75;100.00
41632;BME280;37452;51.938;4.624;2023-04-09T03:07:20;78161.13;;;-142.75;100.00
41632;BME280;37452;51.938;4.624;2023-04-09T03:09:46;78155.22;;;-142.75;100.00
41632;BME280;37452;51.938;4.624;2023-04-09T03:12:11;78165.06;;;-142.75;100.00
41632;BME280;37452;51.938;4.624;2023-04-09T03:14:36;78167.03;;;-142.75;100.00
41632;BME280;37452;51.938;4.624;2023-04-09T03:17:02;78157.19;;;-142.75;100.00
41632;BME280;37452;51.938;4.624;2023-04-09T03:19:27;78149.31;;;-142.75;100.00
41632;BME280;37452;51.938;4.624;2023-04-09T03:21:54;78149.31;;;-142.75;100.00
41632;BME280;37452;51.938;4.624;2023-04-09T03:24:19;78153.25;;;-142.75;100.00
41632;BME280;37452;51.938;4.624;2023-04-09T03:26:45;78151.28;;;-142.75;100.00
41632;BME280;37452;51.938;4.624;2023-04-09T03:29:11;78147.34;;;-142.75;100.00
41632;BME280;37452;51.938;4.624;2023-04-09T03:31:36;78147.34;;;-142.75;100.00
41632;BME280;37452;51.938;4.624;2023-04-09T03:34:01;78153.25;;;-142.75;100.00
41632;BME280;37452;51.938;4.624;2023-04-09T03:36:27;78149.31;;;-142.75;100.00
41632;BME280;37452;51.938;4.624;2023-04-09T03:38:52;78133.56;;;-142.75;100.00
41632;BME280;37452;51.938;4.624;2023-04-09T03:41:18;78141.44;;;-142.75;100.00
41632;BME280;37452;51.938;4.624;2023-04-09T03:43:43;78153.25;;;-142.75;100.00
41632;BME280;37452;51.938;4.624;2023-04-09T03:46:13;78145.38;;;-142.75;100.00
41632;BME280;37452;51.938;4.624;2023-04-09T03:48:39;78141.44;;;-142.75;100.00
41632;BME280;37452;51.938;4.624;2023-04-09T03:51:04;78145.38;;;-142.75;100.00
41632;BME280;37452;51.938;4.624;2023-04-09T03:53:30;78147.34;;;-142.75;100.00
41632;BME280;37452;51.938;4.624;2023-04-09T03:55:55;78141.44;;;-142.75;100.00
41632;BME280;37452;51.938;4.624;2023-04-09T03:58:20;78149.31;;;-142.75;100.00
41632;BME280;37452;51.938;4.624;2023-04-09T04:00:46;78153.25;;;-142.75;100.00
41632;BME280;37452;51.938;4.624;2023-04-09T04:03:11;78141.44;;;-142.75;100.00
41632;BME280;37452;51.938;4.624;2023-04-09T04:05:38;78131.59;;;-142.75;100.00
41632;BME280;37452;51.938;4.624;2023-04-09T04:08:04;78137.50;;;-142.75;100.00
41632;BME280;37452;51.938;4.624;2023-04-09T04:10:29;78137.50;;;-142.75;100.00
41632;BME280;37452;51.938;4.624;2023-04-09T04:12:55;78129.63;;;-142.75;100.00
41632;BME280;37452;51.938;4.624;2023-04-09T04:15:20;78131.59;;;-142.75;100.00
41632;BME280;37452;51.938;4.624;2023-04-09T04:17:45;78145.38;;;-142.75;100.00
41632;BME280;37452;51.938;4.624;2023-04-09T04:20:11;78135.53;;;-142.75;100.00
41632;BME280;37452;51.938;4.624;2023-04-09T04:22:36;78123.72;;;-142.75;100.00
41632;BME280;37452;51.938;4.624;2023-04-09T04:25:03;78121.75;;;-142.75;100.00
41632;BME280;37452;51.938;4.624;2023-04-09T04:27:28;78107.97;;;-142.75;100.00
41632;BME280;37452;51.938;4.624;2023-04-09T04:29:53;78111.91;;;-142.75;100.00
41632;BME280;37452;51.938;4.624;2023-04-09T04:32:19;78106.00;;;-142.75;100.00
41632;BME280;37452;51.938;4.624;2023-04-09T04:34:48;78106.00;;;-142.75;100.00
41632;BME280;37452;51.938;4.624;2023-04-09T04:37:14;78102.06;;;-142.75;100.00
41632;BME280;37452;51.938;4.624;2023-04-09T04:39:39;78102.06;;;-142.75;100.00
41632;BME280;37452;51.938;4.624;2023-04-09T04:42:04;78102.06;;;-142.75;100.00
41632;BME280;37452;51.938;4.624;2023-04-09T04:44:30;78094.19;;;-142.75;100.00
41632;BME280;37452;51.938;4.624;2023-04-09T04:46:55;78094.19;;;-142.75;100.00
41632;BME280;37452;51.938;4.624;2023-04-09T04:49:20;78100.09;;;-142.75;100.00
41632;BME280;37452;51.938;4.624;2023-04-09T04:51:46;78092.22;;;-142.75;100.00
41632;BME280;37452;51.938;4.624;2023-04-09T04:54:11;78107.97;;;-142.75;100.00
41632;BME280;37452;51.938;4.624;2023-04-09T04:56:36;78109.94;;;-142.75;100.00
41632;BME280;37452;51.938;4.624;2023-04-09T04:59:02;78115.84;;;-142.75;100.00
41632;BME280;37452;51.938;4.624;2023-04-09T05:01:27;78117.81;;;-142.75;100.00
41632;BME280;37452;51.938;4.624;2023-04-09T05:03:53;78141.44;;;-142.75;100.00
41632;BME280;37452;51.938;4.624;2023-04-09T05:06:18;78113.88;;;-142.75;100.00
41632;BME280;37452;51.938;4.624;2023-04-09T05:08:43;78113.88;;;-142.75;100.00
41632;BME280;37452;51.938;4.624;2023-04-09T05:11:12;78102.06;;;-142.75;100.00
41632;BME280;37452;51.938;4.624;2023-04-09T05:13:39;78100.09;;;-142.75;100.00
41632;BME280;37452;51.938;4.624;2023-04-09T05:16:05;78109.94;;;-142.75;100.00
41632;BME280;37452;51.938;4.624;2023-04-09T05:18:30;78092.22;;;-142.75;100.00
41632;BME280;37452;51.938;4.624;2023-04-09T05:20:55;78090.25;;;-142.75;100.00
41632;BME280;37452;51.938;4.624;2023-04-09T05:23:21;78100.09;;;-142.75;100.00
41632;BME280;37452;51.938;4.624;2023-04-09T05:25:49;78090.25;;;-142.75;100.00
41632;BME280;37452;51.938;4.624;2023-04-09T05:28:15;78092.22;;;-142.75;100.00
41632;BME280;37452;51.938;4.624;2023-04-09T05:30:46;78084.34;;;-142.75;100.00
41632;BME280;37452;51.938;4.624;2023-04-09T05:33:12;78106.00;;;-142.75;100.00
41632;BME280;37452;51.938;4.624;2023-04-09T05:35:38;78113.88;;;-142.75;100.00
41632;BME280;37452;51.938;4.624;2023-04-09T05:38:04;78082.38;;;-142.75;100.00
41632;BME280;37452;51.938;4.624;2023-04-09T05:40:29;78072.53;;;-142.75;100.00
41632;BME280;37452;51.938;4.624;2023-04-09T05:42:54;78090.25;;;-142.75;100.00
41632;BME280;37452;51.938;4.624;2023-04-09T05:45:20;78090.25;;;-142.75;100.00
41632;BME280;37452;51.938;4.624;2023-04-09T05:47:45;78094.19;;;-142.75;100.00
41632;BME280;37452;51.938;4.624;2023-04-09T05:50:11;78082.38;;;-142.75;100.00
41632;BME280;37452;51.938;4.624;2023-04-09T05:52:36;78090.25;;;-142.75;100.00
41632;BME280;37452;51.938;4.624;2023-04-09T05:55:01;78090.25;;;-142.75;100.00
41632;BME280;37452;51.938;4.624;2023-04-09T05:57:27;78119.78;;;-142.75;100.00
41632;BME280;37452;51.938;4.624;2023-04-09T05:59:54;78086.31;;;-142.75;100.00
41632;BME280;37452;51.938;4.624;2023-04-09T06:02:20;78086.31;;;-142.75;100.00
41632;BME280;37452;51.938;4.624;2023-04-09T06:04:45;78078.44;;;-142.75;100.00
41632;BME280;37452;51.938;4.624;2023-04-09T06:07:10;78082.38;;;-142.75;100.00
41632;BME280;37452;51.938;4.624;2023-04-09T06:09:36;78080.41;;;-142.75;100.00
41632;BME280;37452;51.938;4.624;2023-04-09T06:12:02;78078.44;;;-142.75;100.00
41632;BME280;37452;51.938;4.624;2023-04-09T06:14:28;78082.38;;;-142.75;100.00
41632;BME280;37452;51.938;4.624;2023-04-09T06:16:53;78090.25;;;-142.75;100.00
41632;BME280;37452;51.938;4.624;2023-04-09T06:19:18;78106.00;;;-142.75;100.00
41632;BME280;37452;51.938;4.624;2023-04-09T06:21:44;78113.88;;;-142.75;100.00
41632;BME280;37452;51.938;4.624;2023-04-09T06:24:09;78098.13;;;-142.75;100.00
41632;BME280;37452;51.938;4.624;2023-04-09T06:26:34;78102.06;;;-142.75;100.00
41632;BME280;37452;51.938;4.624;2023-04-09T06:29:00;78109.94;;;-142.75;100.00
41632;BME280;37452;51.938;4.624;2023-04-09T06:31:26;78117.81;;;-142.75;100.00
41632;BME280;37452;51.938;4.624;2023-04-09T06:33:51;78113.88;;;-142.75;100.00
41632;BME280;37452;51.938;4.624;2023-04-09T06:36:16;78125.69;;;-142.75;100.00
41632;BME280;37452;51.938;4.624;2023-04-09T06:38:42;78119.78;;;-142.75;100.00
41632;BME280;37452;51.938;4.624;2023-04-09T06:41:07;78131.59;;;-142.75;100.00
41632;BME280;37452;51.938;4.624;2023-04-09T06:43:33;78125.69;;;-142.75;100.00
41632;BME280;37452;51.938;4.624;2023-04-09T06:45:58;78121.75;;;-142.75;100.00
41632;BME280;37452;51.938;4.624;2023-04-09T06:48:23;78109.94;;;-142.75;100.00
41632;BME280;37452;51.938;4.624;2023-04-09T06:50:49;78111.91;;;-142.75;100.00
41632;BME280;37452;51.938;4.624;2023-04-09T06:53:14;78109.94;;;-142.75;100.00
41632;BME280;37452;51.938;4.624;2023-04-09T06:55:40;78127.66;;;-142.75;100.00
41632;BME280;37452;51.938;4.624;2023-04-09T06:58:06;78123.72;;;-142.75;100.00
41632;BME280;37452;51.938;4.624;2023-04-09T07:00:31;78115.84;;;-142.75;100.00
41632;BME280;37452;51.938;4.624;2023-04-09T07:02:56;78113.88;;;-142.75;100.00
41632;BME280;37452;51.938;4.624;2023-04-09T07:05:22;78139.47;;;-142.75;100.00
41632;BME280;37452;51.938;4.624;2023-04-09T07:07:48;78133.56;;;-142.75;100.00
41632;BME280;37452;51.938;4.624;2023-04-09T07:10:13;78141.44;;;-142.75;100.00
41632;BME280;37452;51.938;4.624;2023-04-09T07:12:39;78137.50;;;-142.75;100.00
41632;BME280;37452;51.938;4.624;2023-04-09T07:15:05;78133.56;;;-142.75;100.00
41632;BME280;37452;51.938;4.624;2023-04-09T07:17:32;78131.59;;;-142.75;100.00
41632;BME280;37452;51.938;4.624;2023-04-09T07:19:57;78149.31;;;-142.75;100.00
41632;BME280;37452;51.938;4.624;2023-04-09T07:22:24;78137.50;;;-142.75;100.00
41632;BME280;37452;51.938;4.624;2023-04-09T07:24:50;78123.72;;;-142.75;100.00
41632;BME280;37452;51.938;4.624;2023-04-09T07:27:26;78117.81;;;-142.75;100.00
41632;BME280;37452;51.938;4.624;2023-04-09T07:29:58;78133.56;;;-142.75;100.00
41632;BME280;37452;51.938;4.624;2023-04-09T07:32:25;78141.44;;;-142.75;100.00
41632;BME280;37452;51.938;4.624;2023-04-09T07:34:51;78153.25;;;-142.75;100.00
41632;BME280;37452;51.938;4.624;2023-04-09T07:37:17;78149.31;;;-142.75;100.00
41632;BME280;37452;51.938;4.624;2023-04-09T07:39:42;78149.31;;;-142.75;100.00
41632;BME280;37452;51.938;4.624;2023-04-09T07:42:07;78161.13;;;-142.75;100.00
41632;BME280;37452;51.938;4.624;2023-04-09T07:44:34;78157.19;;;-142.75;100.00
41632;BME280;37452;51.938;4.624;2023-04-09T07:47:04;78159.16;;;-142.75;100.00
41632;BME280;37452;51.938;4.624;2023-04-09T07:49:29;78151.28;;;-142.75;100.00
41632;BME280;37452;51.938;4.624;2023-04-09T07:51:56;78176.88;;;-142.75;100.00
41632;BME280;37452;51.938;4.624;2023-04-09T07:54:21;78174.91;;;-142.75;100.00
41632;BME280;37452;51.938;4.624;2023-04-09T07:56:47;78170.97;;;-142.75;100.00
41632;BME280;37452;51.938;4.624;2023-04-09T07:59:12;78153.25;;;-142.75;100.00
41632;BME280;37452;51.938;4.624;2023-04-09T08:01:40;78151.28;;;-142.75;100.00
41632;BME280;37452;51.938;4.624;2023-04-09T08:04:05;78141.44;;;-142.75;100.00
41632;BME280;37452;51.938;4.624;2023-04-09T08:06:30;78147.34;;;-142.75;100.00
41632;BME280;37452;51.938;4.624;2023-04-09T08:08:57;78149.31;;;-142.75;100.00
41632;BME280;37452;51.938;4.624;2023-04-09T08:11:22;78161.13;;;-142.75;100.00
41632;BME280;37452;51.938;4.624;2023-04-09T08:13:51;78143.41;;;-142.75;100.00
41632;BME280;37452;51.938;4.624;2023-04-09T08:16:16;78159.16;;;-142.75;100.00
41632;BME280;37452;51.938;4.624;2023-04-09T08:18:41;78151.28;;;-142.75;100.00
41632;BME280;37452;51.938;4.624;2023-04-09T08:21:07;78163.09;;;-142.75;100.00
41632;BME280;37452;51.938;4.624;2023-04-09T08:23:32;78172.94;;;-142.75;100.00
41632;BME280;37452;51.938;4.624;2023-04-09T08:25:57;78176.88;;;-142.75;100.00
41632;BME280;37452;51.938;4.624;2023-04-09T08:28:23;78165.06;;;-142.75;100.00
41632;BME280;37452;51.938;4.624;2023-04-09T08:30:48;78159.16;;;-142.75;100.00
41632;BME280;37452;51.938;4.624;2023-04-09T08:33:13;78157.19;;;-142.75;100.00
41632;BME280;37452;51.938;4.624;2023-04-09T08:35:39;78172.94;;;-142.75;100.00
41632;BME280;37452;51.938;4.624;2023-04-09T08:38:05;78172.94;;;-142.75;100.00
41632;BME280;37452;51.938;4.624;2023-04-09T08:40:34;78182.81;;;-142.75;100.00
41632;BME280;37452;51.938;4.624;2023-04-09T08:43:03;78174.91;;;-142.75;100.00
41632;BME280;37452;51.938;4.624;2023-04-09T08:45:29;78172.94;;;-142.75;100.00
41632;BME280;37452;51.938;4.624;2023-04-09T08:47:54;78159.16;;;-142.75;100.00
41632;BME280;37452;51.938;4.624;2023-04-09T08:50:24;78188.72;;;-142.75;100.00
41632;BME280;37452;51.938;4.624;2023-04-09T08:52:49;78188.72;;;-142.75;100.00
41632;BME280;37452;51.938;4.624;2023-04-09T08:55:15;78200.53;;;-142.75;100.00
41632;BME280;37452;51.938;4.624;2023-04-09T08:57:41;78194.63;;;-142.75;100.00
41632;BME280;37452;51.938;4.624;2023-04-09T09:00:07;78188.72;;;-142.75;100.00
41632;BME280;37452;51.938;4.624;2023-04-09T09:02:33;78202.50;;;-142.75;100.00
41632;BME280;37452;51.938;4.624;2023-04-09T09:04:59;78202.50;;;-142.75;100.00
41632;BME280;37452;51.938;4.624;2023-04-09T09:07:28;78204.47;;;-142.75;100.00
41632;BME280;37452;51.938;4.624;2023-04-09T09:09:58;78192.66;;;-142.75;100.00
41632;BME280;37452;51.938;4.624;2023-04-09T09:12:30;78180.81;;;-142.75;100.00
41632;BME280;37452;51.938;4.624;2023-04-09T09:14:56;78204.47;;;-142.75;100.00
41632;BME280;37452;51.938;4.624;2023-04-09T09:17:21;78188.72;;;-142.75;100.00
41632;BME280;37452;51.938;4.624;2023-04-09T09:19:46;78196.59;;;-142.75;100.00
41632;BME280;37452;51.938;4.624;2023-04-09T09:22:12;78163.09;;;-142.75;100.00
41632;BME280;37452;51.938;4.624;2023-04-09T09:24:51;78149.31;;;-142.75;100.00
41632;BME280;37452;51.938;4.624;2023-04-09T09:27:36;78133.56;;;-142.75;100.00
41632;BME280;37452;51.938;4.624;2023-04-09T09:30:05;78119.78;;;-142.75;100.00
41632;BME280;37452;51.938;4.624;2023-04-09T09:32:31;78127.66;;;-142.75;100.00
41632;BME280;37452;51.938;4.624;2023-04-09T09:34:59;78109.94;;;-142.75;100.00
41632;BME280;37452;51.938;4.624;2023-04-09T09:37:26;78098.13;;;-142.75;100.00
41632;BME280;37452;51.938;4.624;2023-04-09T09:39:55;78090.25;;;-142.75;100.00
41632;BME280;37452;51.938;4.624;2023-04-09T09:42:21;78074.50;;;-142.75;100.00
41632;BME280;37452;51.938;4.624;2023-04-09T09:44:46;78070.56;;;-142.75;100.00
41632;BME280;37452;51.938;4.624;2023-04-09T09:47:13;78064.66;;;-142.75;100.00
41632;BME280;37452;51.938;4.624;2023-04-09T09:49:39;78033.13;;;-142.75;100.00
41632;BME280;37452;51.938;4.624;2023-04-09T09:52:09;78042.97;;;-142.75;100.00
41632;BME280;37452;51.938;4.624;2023-04-09T09:54:40;78011.47;;;-142.75;100.00
41632;BME280;37452;51.938;4.624;2023-04-09T09:57:09;77976.03;;;-142.75;100.00
41632;BME280;37452;51.938;4.624;2023-04-09T09:59:40;77954.38;;;-142.75;100.00
41632;BME280;37452;51.938;4.624;2023-04-09T10:02:11;77924.84;;;-142.75;100.00
41632;BME280;37452;51.938;4.624;2023-04-09T10:04:38;77926.81;;;-142.75;100.00
41632;BME280;37452;51.938;4.624;2023-04-09T10:07:05;77930.75;;;-142.75;100.00
41632;BME280;37452;51.938;4.624;2023-04-09T10:09:34;77918.94;;;-142.75;100.00
41632;BME280;37452;51.938;4.624;2023-04-09T10:12:00;77909.06;;;-142.75;100.00
41632;BME280;37452;51.938;4.624;2023-04-09T10:14:27;77897.25;;;-142.75;100.00
41632;BME280;37452;51.938;4.624;2023-04-09T10:16:53;77909.06;;;-142.75;100.00
41632;BME280;37452;51.938;4.624;2023-04-09T10:19:19;77881.50;;;-142.75;100.00
41632;BME280;37452;51.938;4.624;2023-04-09T10:21:48;77901.19;;;-142.75;100.00
41632;BME280;37452;51.938;4.624;2023-04-09T10:24:17;77887.41;;;-142.75;100.00
41632;BME280;37452;51.938;4.624;2023-04-09T10:26:43;77850.00;;;-142.75;100.00
41632;BME280;37452;51.938;4.624;2023-04-09T10:29:14;77869.69;;;-142.75;100.00
41632;BME280;37452;51.938;4.624;2023-04-09T10:31:53;77848.03;;;-142.75;100.00
41632;BME280;37452;51.938;4.624;2023-04-09T10:34:25;77838.19;;;-142.75;100.00
41632;BME280;37452;51.938;4.624;2023-04-09T10:36:55;77810.63;;;-142.75;100.00
41632;BME280;37452;51.938;4.624;2023-04-09T10:39:25;77792.91;;;-142.75;100.00
41632;BME280;37452;51.938;4.624;2023-04-09T10:41:51;77787.00;;;-142.75;100.00
41632;BME280;37452;51.938;4.624;2023-04-09T10:44:22;77763.38;;;-142.75;100.00
41632;BME280;37452;51.938;4.624;2023-04-09T10:46:48;77749.59;;;-142.75;100.00
41632;BME280;37452;51.938;4.624;2023-04-09T10:49:19;77745.66;;;-142.75;100.00
41632;BME280;37452;51.938;4.624;2023-04-09T10:51:50;77735.81;;;-142.75;100.00
41632;BME280;37452;51.938;4.624;2023-04-09T10:59:36;77659.00;;;-142.75;100.00
41632;BME280;37452;51.938;4.624;2023-04-09T11:02:07;77623.56;;;-142.75;100.00
41632;BME280;37452;51.938;4.624;2023-04-09T11:05:00;77568.44;;;-142.75;100.00
41632;BME280;37452;51.938;4.624;2023-04-09T11:07:29;77544.81;;;-142.75;100.00
41632;BME280;37452;51.938;4.624;2023-04-09T11:09:57;77523.16;;;-142.75;100.00
41632;BME280;37452;51.938;4.624;2023-04-09T11:12:22;77471.97;;;-142.75;100.00
41632;BME280;37452;51.938;4.624;2023-04-09T11:14:47;77405.00;;;-142.75;100.00
41632;BME280;37452;51.938;4.624;2023-04-09T11:17:12;77381.38;;;-142.75;100.00
41632;BME280;37452;51.938;4.624;2023-04-09T11:19:39;77381.38;;;-142.75;100.00
41632;BME280;37452;51.938;4.624;2023-04-09T11:22:04;77395.16;;;-142.75;100.00
41632;BME280;37452;51.938;4.624;2023-04-09T11:24:44;77365.63;;;-142.75;100.00
41632;BME280;37452;51.938;4.624;2023-04-09T11:27:11;77381.38;;;-142.75;100.00
41632;BME280;37452;51.938;4.624;2023-04-09T11:29:36;77381.38;;;-142.75;100.00
41632;BME280;37452;51.938;4.624;2023-04-09T11:32:02;77408.94;;;-142.75;100.00
41632;BME280;37452;51.938;4.624;2023-04-09T11:34:31;77416.81;;;-142.75;100.00
41632;BME280;37452;51.938;4.624;2023-04-09T11:36:56;77507.41;;;-142.75;100.00
41632;BME280;37452;51.938;4.624;2023-04-09T11:39:24;77531.03;;;-142.75;100.00
41632;BME280;37452;51.938;4.624;2023-04-09T11:41:50;77444.38;;;-142.75;100.00
41632;BME280;37452;51.938;4.624;2023-04-09T11:44:16;77420.75;;;-142.75;100.00
41632;BME280;37452;51.938;4.624;2023-04-09T11:46:41;77452.25;;;-142.75;100.00
41632;BME280;37452;51.938;4.624;2023-04-09T11:49:07;77464.09;;;-142.75;100.00
41632;BME280;37452;51.938;4.624;2023-04-09T11:51:33;77428.63;;;-142.75;100.00
41632;BME280;37452;51.938;4.624;2023-04-09T11:54:04;77373.50;;;-142.75;100.00
41632;BME280;37452;51.938;4.624;2023-04-09T11:56:29;77416.81;;;-142.75;100.00
41632;BME280;37452;51.938;4.624;2023-04-09T11:58:55;77406.97;;;-142.75;100.00
41632;BME280;37452;51.938;4.624;2023-04-09T12:01:21;77401.06;;;-142.75;100.00
41632;BME280;37452;51.938;4.624;2023-04-09T12:03:54;77403.03;;;-142.75;100.00
41632;BME280;37452;51.938;4.624;2023-04-09T12:06:21;77424.69;;;-142.75;100.00
41632;BME280;37452;51.938;4.624;2023-04-09T12:08:55;77381.38;;;-142.75;100.00
41632;BME280;37452;51.938;4.624;2023-04-09T12:11:27;77357.75;;;-142.75;100.00
41632;BME280;37452;51.938;4.624;2023-04-09T12:14:02;77383.34;;;-142.75;100.00
41632;BME280;37452;51.938;4.624;2023-04-09T12:16:32;77343.97;;;-142.75;100.00
41632;BME280;37452;51.938;4.624;2023-04-09T12:19:02;77294.75;;;-142.75;100.00
41632;BME280;37452;51.938;4.624;2023-04-09T12:24:12;77326.25;;;-142.75;100.00
41632;BME280;37452;51.938;4.624;2023-04-09T12:26:37;77294.75;;;-142.75;100.00
41632;BME280;37452;51.938;4.624;2023-04-09T12:29:03;77249.47;;;-142.75;97.16
41632;BME280;37452;51.938;4.624;2023-04-09T12:31:28;77235.69;;;-142.75;95.53
41632;BME280;37452;51.938;4.624;2023-04-09T12:33:53;77239.63;;;-142.75;95.65
41632;BME280;37452;51.938;4.624;2023-04-09T12:36:18;77204.19;;;-142.75;94.37
41632;BME280;37452;51.938;4.624;2023-04-09T12:38:44;77198.28;;;-142.75;92.21
41632;BME280;37452;51.938;4.624;2023-04-09T12:41:10;77202.22;;;-142.75;89.88